createdAt,value
2022-08-14T00:01:37.056Z,84.90
2022-08-14T00:03:42.035Z,84.70
2022-08-14T00:05:46.518Z,85.10
2022-08-14T00:07:51.798Z,84.80
2022-08-14T00:10:49.217Z,84.90
2022-08-14T00:12:32.999Z,84.60
2022-08-14T00:14:54.896Z,84.90
2022-08-14T00:17:01.329Z,84.30
2022-08-14T00:19:19.746Z,84.00
2022-08-14T00:21:28.192Z,83.70
2022-08-14T00:23:35.367Z,83.80
2022-08-14T00:25:42.489Z,83.50
2022-08-14T00:27:48.994Z,83.40
2022-08-14T00:29:58.182Z,82.90
2022-08-14T00:32:02.419Z,82.70
2022-08-14T00:34:36.121Z,83.10
2022-08-14T00:36:49.587Z,83.70
2022-08-14T00:38:54.123Z,84.00
2022-08-14T00:40:58.908Z,84.30
2022-08-14T00:43:05.504Z,84.10
2022-08-14T00:45:13.909Z,84.10
2022-08-14T00:47:19.804Z,83.80
2022-08-14T00:49:24.148Z,83.70
2022-08-14T00:51:34.657Z,83.60
2022-08-14T00:53:43.148Z,83.80
2022-08-14T00:55:49.383Z,83.90
2022-08-14T00:58:07.700Z,85.20
2022-08-14T01:00:34.252Z,84.60
2022-08-14T01:02:43.513Z,84.40
2022-08-14T01:04:53.716Z,84.60
2022-08-14T01:07:00.871Z,84.60
2022-08-14T01:09:12.817Z,84.40
2022-08-14T01:11:19.727Z,84.60
2022-08-14T01:13:26.205Z,84.40
2022-08-14T01:16:01.169Z,85.00
2022-08-14T01:18:24.534Z,84.40
2022-08-14T01:20:49.876Z,84.30
2022-08-14T01:22:55.507Z,84.80
2022-08-14T01:24:59.801Z,84.70
2022-08-14T01:27:07.151Z,84.60
2022-08-14T01:29:16.188Z,84.40
2022-08-14T01:31:38.413Z,84.90
2022-08-14T01:34:00.075Z,85.00
2022-08-14T01:36:21.119Z,84.80
2022-08-14T01:38:37.405Z,85.50
2022-08-14T01:40:42.248Z,86.00
2022-08-14T01:42:46.962Z,86.40
2022-08-14T01:44:54.307Z,86.70
2022-08-14T01:47:01.177Z,87.30
2022-08-14T01:49:08.065Z,87.30
2022-08-14T01:51:20.032Z,87.40
2022-08-14T01:53:25.525Z,87.50
2022-08-14T01:55:40.381Z,87.40
2022-08-14T01:58:00.910Z,87.20
2022-08-14T02:00:15.339Z,87.30
2022-08-14T02:02:23.124Z,87.90
2022-08-14T02:04:55.302Z,87.20
2022-08-14T02:06:55.704Z,87.10
2022-08-14T02:09:04.336Z,86.90
2022-08-14T02:11:26.347Z,87.20
2022-08-14T02:13:31.197Z,87.10
2022-08-14T02:15:41.434Z,87.30
2022-08-14T02:17:48.152Z,87.60
2022-08-14T02:19:53.664Z,87.50
2022-08-14T02:22:03.356Z,87.10
2022-08-14T02:24:38.229Z,86.60
2022-08-14T02:28:20.207Z,86.80
2022-08-14T02:29:03.702Z,86.60
2022-08-14T02:31:09.084Z,87.00
2022-08-14T02:33:13.458Z,87.00
2022-08-14T02:35:22.056Z,86.90
2022-08-14T02:37:47.350Z,87.80
2022-08-14T02:39:53.191Z,87.90
2022-08-14T02:41:59.844Z,89.00
2022-08-14T02:44:10.410Z,88.60
2022-08-14T02:46:20.741Z,88.60
2022-08-14T02:49:03.985Z,88.30
2022-08-14T02:51:02.129Z,88.40
2022-08-14T02:53:07.557Z,88.40
2022-08-14T02:55:15.648Z,88.10
2022-08-14T02:57:40.044Z,88.80
2022-08-14T02:59:45.422Z,88.70
2022-08-14T03:01:54.843Z,89.20
2022-08-14T03:03:59.464Z,89.40
2022-08-14T03:06:04.678Z,90.30
2022-08-14T03:08:11.911Z,90.10
2022-08-14T03:10:25.286Z,90.00
2022-08-14T03:12:34.317Z,90.00
2022-08-14T03:14:39.910Z,89.80
2022-08-14T03:16:49.509Z,89.90
2022-08-14T03:19:01.090Z,89.80
2022-08-14T03:21:07.905Z,90.00
2022-08-14T03:23:14.614Z,90.10
2022-08-14T03:25:22.515Z,90.10
2022-08-14T03:27:35.333Z,90.30
2022-08-14T03:29:54.325Z,90.20
2022-08-14T03:31:59.519Z,90.20
2022-08-14T03:34:04.959Z,90.10
2022-08-14T03:37:38.206Z,90.40
2022-08-14T03:39:12.322Z,90.30
2022-08-14T03:41:14.401Z,90.20
2022-08-14T03:43:18.995Z,90.30
2022-08-14T03:45:34.883Z,90.40
2022-08-14T03:47:55.931Z,90.40
2022-08-14T03:50:03.200Z,90.40
2022-08-14T03:52:38.510Z,90.40
2022-08-14T03:54:37.947Z,90.40
2022-08-14T03:56:45.316Z,90.50
2022-08-14T03:58:55.892Z,90.40
2022-08-14T04:01:07.451Z,90.40
2022-08-14T04:03:16.530Z,90.60
2022-08-14T04:05:24.889Z,90.70
2022-08-14T04:07:32.907Z,90.90
2022-08-14T04:09:40.485Z,90.80
2022-08-14T04:11:45.334Z,91.00
2022-08-14T04:13:50.379Z,91.00
2022-08-14T04:16:01.637Z,91.10
2022-08-14T04:18:08.648Z,91.00
2022-08-14T04:20:16.281Z,90.60
2022-08-14T04:22:30.295Z,90.10
2022-08-14T04:24:39.378Z,90.00
2022-08-14T04:26:44.527Z,89.40
2022-08-14T04:29:07.932Z,89.30
2022-08-14T04:31:15.397Z,89.00
2022-08-14T04:33:24.748Z,88.80
2022-08-14T04:35:55.591Z,88.90
2022-08-14T04:38:36.705Z,88.10
2022-08-14T04:40:55.524Z,88.00
2022-08-14T04:43:18.354Z,87.70
2022-08-14T04:45:32.968Z,87.40
2022-08-14T04:47:54.578Z,87.40
2022-08-14T04:50:00.303Z,86.40
2022-08-14T04:52:15.501Z,86.10
2022-08-14T04:54:28.505Z,86.30
2022-08-14T04:56:34.620Z,86.40
2022-08-14T04:58:39.857Z,86.80
2022-08-14T05:00:44.222Z,86.50
2022-08-14T05:02:52.389Z,87.00
2022-08-14T05:04:59.579Z,87.30
2022-08-14T05:07:03.850Z,87.20
2022-08-14T05:09:14.006Z,86.60
2022-08-14T05:11:20.103Z,87.50
2022-08-14T05:13:29.921Z,87.80
2022-08-14T05:15:37.258Z,86.80
2022-08-14T05:17:58.579Z,86.60
2022-08-14T05:21:10.945Z,85.30
2022-08-14T05:22:38.146Z,85.30
2022-08-14T05:24:42.442Z,79.60
2022-08-14T05:26:48.071Z,84.80
2022-08-14T05:28:52.685Z,83.70
2022-08-14T05:31:01.063Z,82.90
2022-08-14T05:33:05.546Z,83.00
2022-08-14T05:35:12.058Z,82.30
2022-08-14T05:37:19.163Z,82.50
2022-08-14T05:39:23.452Z,82.70
2022-08-14T05:41:52.750Z,81.20
2022-08-14T05:43:52.408Z,81.00
2022-08-14T05:45:56.928Z,78.80
2022-08-14T05:48:03.683Z,80.30
2022-08-14T05:50:17.607Z,84.60
2022-08-14T05:52:38.441Z,83.70
2022-08-14T05:54:48.346Z,80.20
2022-08-14T05:56:52.576Z,79.80
2022-08-14T05:58:56.871Z,81.40
2022-08-14T06:01:05.085Z,83.90
2022-08-14T06:03:12.545Z,82.40
2022-08-14T06:05:18.150Z,84.80
2022-08-14T06:07:27.788Z,82.70
2022-08-14T06:09:35.769Z,79.10
2022-08-14T06:11:44.737Z,79.00
2022-08-14T06:13:54.392Z,82.60
2022-08-14T06:15:59.976Z,83.10
2022-08-14T06:18:04.373Z,83.80
2022-08-14T06:20:10.302Z,82.20
2022-08-14T06:22:16.154Z,81.60
2022-08-14T06:27:04.031Z,82.20
2022-08-14T06:29:10.434Z,83.50
2022-08-14T06:31:16.155Z,80.70
2022-08-14T06:33:21.910Z,82.60
2022-08-14T06:35:27.756Z,83.10
2022-08-14T06:37:42.666Z,80.90
2022-08-14T06:39:46.974Z,80.20
2022-08-14T06:41:57.552Z,83.90
2022-08-14T06:44:03.072Z,83.80
2022-08-14T06:46:12.906Z,83.30
2022-08-14T06:48:28.053Z,84.20
2022-08-14T06:50:33.687Z,83.30
2022-08-14T06:52:39.546Z,82.50
2022-08-14T06:54:57.140Z,81.90
2022-08-14T06:57:01.407Z,81.40
2022-08-14T06:59:05.665Z,81.80
2022-08-14T07:01:28.227Z,82.60
2022-08-14T07:03:50.955Z,82.00
2022-08-14T07:05:59.748Z,82.70
2022-08-14T07:08:04.546Z,82.30
2022-08-14T07:10:16.833Z,82.20
2022-08-14T07:12:54.905Z,82.20
2022-08-14T07:14:45.849Z,81.80
2022-08-14T07:16:51.708Z,81.70
2022-08-14T07:18:56.554Z,81.60
2022-08-14T07:21:03.031Z,81.20
2022-08-14T07:23:11.027Z,81.50
2022-08-14T07:25:32.558Z,81.50
2022-08-14T07:27:37.435Z,82.00
2022-08-14T07:29:45.172Z,81.70
2022-08-14T07:31:49.417Z,81.70
2022-08-14T07:33:53.731Z,80.70
2022-08-14T07:36:00.243Z,78.50
2022-08-14T07:38:04.955Z,78.80
2022-08-14T07:40:10.549Z,79.40
2022-08-14T07:42:20.060Z,79.60
2022-08-14T07:44:32.496Z,79.80
2022-08-14T07:46:40.501Z,81.10
2022-08-14T07:48:45.014Z,82.80
2022-08-14T07:50:52.523Z,85.20
2022-08-14T07:52:59.868Z,86.30
2022-08-14T07:55:06.268Z,89.90
2022-08-14T07:57:12.312Z,90.90
2022-08-14T07:59:40.816Z,91.80
2022-08-14T08:01:48.231Z,92.40
2022-08-14T08:04:00.104Z,91.80
2022-08-14T08:06:10.515Z,92.90
2022-08-14T08:08:27.121Z,92.40
2022-08-14T08:11:02.525Z,93.80
2022-08-14T08:12:59.193Z,93.90
2022-08-14T08:15:07.733Z,94.60
2022-08-14T08:17:13.178Z,93.80
2022-08-14T08:19:19.221Z,93.60
2022-08-14T08:21:27.114Z,93.90
2022-08-14T08:23:40.774Z,94.80
2022-08-14T08:25:50.658Z,94.20
2022-08-14T08:28:00.737Z,94.20
2022-08-14T08:30:15.185Z,93.30
2022-08-14T08:32:21.603Z,93.60
2022-08-14T08:34:46.388Z,93.60
2022-08-14T08:36:50.655Z,93.70
2022-08-14T08:39:17.532Z,93.70
2022-08-14T08:41:26.728Z,93.20
2022-08-14T08:43:33.403Z,92.20
2022-08-14T08:45:40.580Z,93.50
2022-08-14T08:47:46.571Z,93.20
2022-08-14T08:49:59.557Z,92.80
2022-08-14T08:52:05.401Z,92.80
2022-08-14T08:54:15.397Z,91.80
2022-08-14T08:56:39.984Z,91.80
2022-08-14T08:58:44.882Z,91.30
2022-08-14T09:00:54.106Z,91.30
2022-08-14T09:03:02.289Z,92.30
2022-08-14T09:05:07.114Z,92.10
2022-08-14T09:07:13.776Z,91.50
2022-08-14T09:09:22.238Z,91.50
2022-08-14T09:11:27.088Z,92.10
2022-08-14T09:13:33.212Z,92.50
2022-08-14T09:15:42.646Z,93.60
2022-08-14T09:17:49.102Z,93.90
2022-08-14T09:19:53.885Z,94.30
2022-08-14T09:21:58.688Z,94.40
2022-08-14T09:24:26.839Z,95.10
2022-08-14T09:26:28.459Z,95.40
2022-08-14T09:28:34.492Z,95.80
2022-08-14T09:30:44.110Z,95.30
2022-08-14T09:33:11.667Z,95.00
2022-08-14T09:35:23.967Z,95.40
2022-08-14T09:37:42.060Z,94.90
2022-08-14T09:39:57.922Z,95.10
2022-08-14T09:42:33.199Z,94.80
2022-08-14T09:44:52.304Z,94.20
2022-08-14T09:46:57.939Z,93.80
2022-08-14T09:49:05.431Z,94.00
2022-08-14T09:51:25.467Z,94.50
2022-08-14T09:54:19.460Z,94.60
2022-08-14T09:56:14.391Z,94.50
2022-08-14T09:58:40.149Z,95.00
2022-08-14T10:00:48.441Z,94.50
2022-08-14T10:02:58.415Z,93.50
2022-08-14T10:05:08.730Z,93.10
2022-08-14T10:07:13.228Z,93.50
2022-08-14T10:09:18.490Z,93.50
2022-08-14T10:11:31.070Z,93.30
2022-08-14T10:13:52.899Z,92.80
2022-08-14T10:16:01.416Z,92.70
2022-08-14T10:18:17.750Z,92.10
2022-08-14T10:20:39.541Z,92.20
2022-08-14T10:23:11.877Z,92.40
2022-08-14T10:25:15.642Z,92.40
2022-08-14T10:27:23.529Z,92.70
2022-08-14T10:29:36.161Z,92.80
2022-08-14T10:31:45.117Z,92.70
2022-08-14T10:34:12.619Z,93.00
2022-08-14T10:36:37.001Z,94.00
2022-08-14T10:38:51.928Z,94.20
2022-08-14T10:40:59.173Z,94.60
2022-08-14T10:43:04.603Z,94.60
2022-08-14T10:45:21.542Z,94.30
2022-08-14T10:48:07.040Z,93.50
2022-08-14T10:50:02.639Z,93.20
2022-08-14T10:52:12.241Z,93.20
2022-08-14T10:54:36.265Z,92.60
2022-08-14T10:56:42.305Z,91.80
2022-08-14T10:58:50.245Z,91.00
2022-08-14T11:00:59.422Z,90.30
2022-08-14T11:03:08.026Z,90.10
2022-08-14T11:05:14.720Z,89.20
2022-08-14T11:07:21.860Z,87.60
2022-08-14T11:09:30.395Z,87.60
2022-08-14T11:11:45.155Z,84.60
2022-08-14T11:13:50.895Z,85.10
2022-08-14T11:16:00.709Z,84.10
2022-08-14T11:18:06.558Z,83.40
2022-08-14T11:20:19.849Z,83.10
2022-08-14T11:22:55.519Z,83.30
2022-08-14T11:24:58.716Z,83.40
2022-08-14T11:27:08.208Z,82.60
2022-08-14T11:29:13.833Z,82.80
2022-08-14T11:31:23.806Z,82.40
2022-08-14T11:33:32.501Z,82.40
2022-08-14T11:35:47.172Z,82.70
2022-08-14T11:37:59.201Z,84.10
2022-08-14T11:40:08.303Z,83.20
2022-08-14T11:42:57.283Z,81.90
2022-08-14T11:44:49.709Z,80.80
2022-08-14T11:46:59.379Z,81.10
2022-08-14T11:49:05.584Z,80.60
2022-08-14T11:51:23.893Z,79.50
2022-08-14T11:53:35.347Z,79.30
2022-08-14T11:55:47.741Z,79.40
2022-08-14T11:58:03.189Z,77.70
2022-08-14T12:00:14.669Z,78.00
2022-08-14T12:03:01.076Z,77.60
2022-08-14T12:04:52.098Z,78.20
2022-08-14T12:06:58.518Z,76.00
2022-08-14T12:09:08.911Z,75.60
2022-08-14T12:11:24.470Z,76.00
2022-08-14T12:13:36.110Z,75.20
2022-08-14T12:15:44.887Z,75.10
2022-08-14T12:17:50.801Z,75.60
2022-08-14T12:19:58.698Z,77.80
2022-08-14T12:22:03.652Z,78.80
2022-08-14T12:24:36.122Z,80.20
2022-08-14T12:26:40.942Z,81.20
2022-08-14T12:28:59.824Z,81.70
2022-08-14T12:31:17.276Z,80.90
2022-08-14T12:33:32.909Z,81.20
2022-08-14T12:35:40.008Z,81.10
2022-08-14T12:37:50.609Z,80.80
2022-08-14T12:39:57.231Z,80.50
2022-08-14T12:42:06.690Z,80.40
2022-08-14T12:44:16.122Z,79.50
2022-08-14T12:46:28.295Z,79.90
2022-08-14T12:48:34.061Z,79.40
2022-08-14T12:50:43.264Z,79.40
2022-08-14T12:53:06.471Z,79.30
2022-08-14T12:55:21.893Z,78.70
2022-08-14T12:57:36.295Z,78.50
2022-08-14T12:59:42.762Z,78.50
2022-08-14T13:01:59.433Z,77.70
2022-08-14T13:04:10.135Z,77.30
2022-08-14T13:06:15.684Z,77.20
2022-08-14T13:08:32.879Z,77.40
2022-08-14T13:10:51.204Z,76.60
2022-08-14T13:13:15.645Z,76.50
2022-08-14T13:15:21.096Z,77.50
2022-08-14T13:17:26.977Z,77.30
2022-08-14T13:19:34.029Z,75.90
2022-08-14T13:21:58.802Z,76.00
2022-08-14T13:24:08.385Z,76.10
2022-08-14T13:26:15.235Z,76.40
2022-08-14T13:28:33.174Z,76.00
2022-08-14T13:30:42.006Z,75.80
2022-08-14T13:32:48.245Z,76.50
2022-08-14T13:34:54.992Z,75.80
2022-08-14T13:37:03.787Z,76.80
2022-08-14T13:39:09.426Z,77.10
2022-08-14T13:41:28.097Z,78.00
2022-08-14T13:43:49.027Z,78.60
2022-08-14T13:46:04.051Z,79.30
2022-08-14T13:48:08.446Z,80.10
2022-08-14T13:50:23.441Z,80.70
2022-08-14T13:52:52.485Z,81.50
2022-08-14T13:55:02.613Z,81.10
2022-08-14T13:57:12.739Z,81.10
2022-08-14T13:59:20.465Z,81.00
2022-08-14T14:01:45.833Z,80.60
2022-08-14T14:03:57.218Z,80.80
2022-08-14T14:06:04.590Z,80.70
2022-08-14T14:08:18.541Z,80.20
2022-08-14T14:10:28.554Z,79.10
2022-08-14T14:12:49.213Z,80.10
2022-08-14T14:15:04.927Z,80.30
2022-08-14T14:17:12.865Z,81.20
2022-08-14T14:19:20.102Z,82.30
2022-08-14T14:21:28.608Z,82.00
2022-08-14T14:23:35.122Z,82.30
2022-08-14T14:25:48.001Z,82.90
2022-08-14T14:27:59.541Z,83.10
2022-08-14T14:30:04.674Z,82.50
2022-08-14T14:32:32.173Z,82.90
2022-08-14T14:34:39.403Z,83.00
2022-08-14T14:36:50.032Z,83.20
2022-08-14T14:38:59.322Z,84.10
2022-08-14T14:41:05.731Z,82.80
2022-08-14T14:43:13.287Z,82.50
2022-08-14T14:45:20.042Z,82.60
2022-08-14T14:47:26.138Z,82.50
2022-08-14T14:49:41.894Z,81.70
2022-08-14T14:51:56.031Z,82.50
2022-08-14T14:54:01.881Z,82.80
2022-08-14T14:56:47.912Z,81.90
2022-08-14T14:58:35.479Z,82.10
2022-08-14T15:00:41.991Z,81.90
2022-08-14T15:02:48.130Z,81.80
2022-08-14T15:04:54.158Z,81.80
2022-08-14T15:07:00.472Z,81.80
2022-08-14T15:09:08.798Z,81.40
2022-08-14T15:11:13.866Z,81.60
2022-08-14T15:13:18.100Z,82.30
2022-08-14T15:15:24.590Z,82.30
2022-08-14T15:17:41.150Z,82.10
2022-08-14T15:19:56.379Z,82.10
2022-08-14T15:22:01.415Z,82.00
2022-08-14T15:24:06.150Z,81.50
2022-08-14T15:26:23.943Z,81.40
2022-08-14T15:28:38.751Z,81.10
2022-08-14T15:30:46.057Z,81.30
2022-08-14T15:32:55.929Z,81.30
2022-08-14T15:35:00.683Z,81.60
2022-08-14T15:37:10.917Z,81.10
2022-08-14T15:39:17.606Z,82.10
2022-08-14T15:41:21.975Z,81.90
2022-08-14T15:43:27.474Z,81.50
2022-08-14T15:45:35.516Z,81.40
2022-08-14T15:47:43.010Z,82.30
2022-08-14T15:49:47.842Z,82.70
2022-08-14T15:51:52.939Z,82.10
2022-08-14T15:53:58.792Z,82.60
2022-08-14T15:56:03.130Z,82.50
2022-08-14T15:58:14.378Z,82.50
2022-08-14T16:00:43.684Z,82.50
2022-08-14T16:02:55.947Z,82.50
2022-08-14T16:05:00.318Z,82.90
2022-08-14T16:07:04.667Z,82.80
2022-08-14T16:09:13.356Z,84.00
2022-08-14T16:11:17.836Z,83.30
2022-08-14T16:13:39.497Z,83.20
2022-08-14T16:15:53.612Z,82.10
2022-08-14T16:18:01.304Z,82.00
2022-08-14T16:20:07.344Z,82.30
2022-08-14T16:23:10.072Z,83.00
2022-08-14T16:25:00.092Z,83.10
2022-08-14T16:27:10.237Z,83.60
2022-08-14T16:29:15.674Z,83.00
2022-08-14T16:31:36.750Z,83.00
2022-08-14T16:33:59.939Z,83.30
2022-08-14T16:36:29.841Z,83.60
2022-08-14T16:38:45.558Z,83.30
2022-08-14T16:41:13.438Z,83.10
2022-08-14T16:43:27.321Z,83.40
2022-08-14T16:45:34.012Z,84.00
2022-08-14T16:47:47.994Z,83.50
2022-08-14T16:50:03.023Z,83.60
2022-08-14T16:52:25.813Z,84.00
2022-08-14T16:54:44.471Z,84.10
2022-08-14T16:56:49.570Z,83.80
2022-08-14T16:59:12.211Z,83.90
2022-08-14T17:01:22.704Z,84.40
2022-08-14T17:03:40.992Z,84.70
2022-08-14T17:05:48.123Z,84.60
2022-08-14T17:08:33.474Z,84.80
2022-08-14T17:11:09.737Z,84.50
2022-08-14T17:13:19.154Z,84.20
2022-08-14T17:15:23.641Z,84.30
2022-08-14T17:17:44.187Z,84.80
2022-08-14T17:19:56.036Z,84.40
2022-08-14T17:22:02.051Z,84.30
2022-08-14T17:24:51.622Z,84.30
2022-08-14T17:26:44.406Z,85.00
2022-08-14T17:29:08.903Z,84.60
2022-08-14T17:31:13.211Z,84.80
2022-08-14T17:33:23.088Z,85.30
2022-08-14T17:35:57.718Z,85.10
2022-08-14T17:37:54.746Z,85.20
2022-08-14T17:40:02.673Z,85.00
2022-08-14T17:42:32.502Z,85.70
2022-08-14T17:44:45.637Z,85.10
2022-08-14T17:46:55.374Z,84.90
2022-08-14T17:49:13.998Z,85.40
2022-08-14T17:51:23.841Z,85.30
2022-08-14T17:53:38.043Z,85.10
2022-08-14T17:56:03.246Z,84.70
2022-08-14T17:58:20.721Z,85.00
2022-08-14T18:00:28.531Z,84.40
2022-08-14T18:02:35.493Z,84.90
2022-08-14T18:04:41.800Z,85.10
2022-08-14T18:06:57.814Z,85.60
2022-08-14T18:09:25.001Z,85.20
2022-08-14T18:11:45.616Z,85.10
2022-08-14T18:13:53.327Z,85.30
2022-08-14T18:16:02.542Z,87.00
2022-08-14T18:18:11.819Z,87.00
2022-08-14T18:21:23.533Z,87.10
2022-08-14T18:22:41.395Z,88.00
2022-08-14T18:24:50.485Z,87.90
2022-08-14T18:27:01.471Z,87.80
2022-08-14T18:29:15.039Z,87.80
2022-08-14T18:31:42.251Z,87.90
2022-08-14T18:33:54.945Z,88.20
2022-08-14T18:36:46.722Z,88.40
2022-08-14T18:38:45.455Z,88.70
2022-08-14T18:40:51.862Z,88.70
2022-08-14T18:43:03.341Z,88.50
2022-08-14T18:45:12.883Z,88.50
2022-08-14T18:47:25.590Z,88.60
2022-08-14T18:49:33.415Z,88.70
2022-08-14T18:51:46.227Z,88.40
2022-08-14T18:54:02.433Z,89.00
2022-08-14T18:56:10.005Z,88.50
2022-08-14T18:58:28.072Z,88.60
2022-08-14T19:00:58.788Z,88.00
2022-08-14T19:03:04.716Z,87.70
2022-08-14T19:05:09.691Z,87.40
2022-08-14T19:07:19.235Z,88.90
2022-08-14T19:09:56.376Z,92.80
2022-08-14T19:12:03.683Z,98.00
2022-08-14T19:14:09.995Z,99.90
2022-08-14T19:16:17.235Z,99.90
2022-08-14T19:18:28.403Z,99.90
2022-08-14T19:20:47.841Z,99.90
2022-08-14T19:22:55.051Z,99.90
2022-08-14T19:25:00.509Z,99.90
2022-08-14T19:27:24.067Z,99.90
2022-08-14T19:29:36.283Z,99.90
2022-08-14T19:31:55.037Z,99.90
2022-08-14T19:34:02.869Z,99.90
2022-08-14T19:36:28.675Z,99.90
2022-08-14T19:38:54.357Z,99.90
2022-08-14T19:41:14.274Z,99.90
2022-08-14T19:43:56.313Z,99.90
2022-08-14T19:45:59.743Z,99.90
2022-08-14T19:48:05.308Z,99.90
2022-08-14T19:50:37.985Z,99.90
2022-08-14T19:52:43.510Z,99.90
2022-08-14T19:54:51.193Z,99.90
2022-08-14T19:56:55.817Z,99.90
2022-08-14T19:59:01.991Z,99.90
2022-08-14T20:01:08.672Z,96.10
2022-08-14T20:03:18.756Z,95.60
2022-08-14T20:05:28.049Z,99.00
2022-08-14T20:07:58.820Z,92.60
2022-08-14T20:11:06.554Z,95.20
2022-08-14T20:12:36.073Z,94.60
2022-08-14T20:14:42.525Z,93.70
2022-08-14T20:17:04.661Z,97.40
2022-08-14T20:19:16.207Z,97.50
2022-08-14T20:21:34.501Z,95.50
2022-08-14T20:23:41.101Z,99.00
2022-08-14T20:25:57.186Z,98.60
2022-08-14T20:28:28.960Z,97.20
2022-08-14T20:30:38.065Z,99.90
2022-08-14T20:32:47.481Z,97.40
2022-08-14T20:34:55.950Z,99.60
2022-08-14T20:37:10.130Z,99.10
2022-08-14T20:39:15.092Z,99.90
2022-08-14T20:41:22.197Z,99.70
2022-08-14T20:43:47.046Z,99.90
2022-08-14T20:45:53.221Z,99.90
2022-08-14T20:48:09.044Z,98.50
2022-08-14T20:50:17.123Z,99.50
2022-08-14T20:52:30.603Z,99.30
2022-08-14T20:54:36.969Z,98.20
2022-08-14T20:56:55.148Z,98.30
2022-08-14T20:58:59.660Z,99.50
2022-08-14T21:01:23.298Z,98.70
2022-08-14T21:03:57.475Z,99.80
2022-08-14T21:06:17.378Z,99.10
2022-08-14T21:08:25.907Z,99.40
2022-08-14T21:10:36.180Z,99.50
2022-08-14T21:13:25.984Z,99.90
2022-08-14T21:15:20.678Z,99.90
2022-08-14T21:17:27.577Z,99.90
2022-08-14T21:19:32.063Z,99.90
2022-08-14T21:21:41.462Z,99.90
2022-08-14T21:23:54.552Z,99.90
2022-08-14T21:26:00.639Z,99.90
2022-08-14T21:28:29.296Z,99.90
2022-08-14T21:30:51.102Z,99.90
2022-08-14T21:32:57.957Z,99.90
2022-08-14T21:35:08.486Z,99.90
2022-08-14T21:37:13.527Z,99.90
2022-08-14T21:39:22.318Z,99.70
2022-08-14T21:41:41.637Z,99.90
2022-08-14T21:43:48.222Z,99.40
2022-08-14T21:45:57.585Z,98.40
2022-08-14T21:48:09.173Z,98.20
2022-08-14T21:50:39.550Z,97.90
2022-08-14T21:52:51.714Z,97.00
2022-08-14T21:55:10.425Z,96.80
2022-08-14T21:58:04.003Z,96.50
2022-08-14T21:59:53.595Z,96.60
2022-08-14T22:02:03.714Z,96.50
2022-08-14T22:04:32.804Z,96.20
2022-08-14T22:06:34.086Z,96.60
2022-08-14T22:08:38.482Z,96.50
2022-08-14T22:10:44.612Z,95.70
2022-08-14T22:13:00.757Z,95.80
2022-08-14T22:15:07.462Z,96.60
2022-08-14T22:17:16.424Z,97.20
2022-08-14T22:19:23.539Z,97.30
2022-08-14T22:21:49.428Z,97.20
2022-08-14T22:23:55.564Z,96.70
2022-08-14T22:26:01.111Z,96.00
2022-08-14T22:28:10.940Z,95.60
2022-08-14T22:30:18.610Z,95.40
2022-08-14T22:32:35.488Z,94.80
2022-08-14T22:34:48.659Z,94.80
2022-08-14T22:36:53.085Z,94.50
2022-08-14T22:38:58.629Z,94.30
2022-08-14T22:41:30.402Z,93.90
2022-08-14T22:43:31.284Z,94.40
2022-08-14T22:45:37.954Z,94.00
2022-08-14T22:47:42.497Z,94.00
2022-08-14T22:50:29.387Z,94.00
2022-08-14T22:52:31.914Z,94.20
2022-08-14T22:54:51.970Z,94.90
2022-08-14T22:56:58.651Z,95.60
2022-08-14T22:59:09.642Z,95.20
2022-08-14T23:01:18.349Z,95.20
2022-08-14T23:03:27.549Z,95.00
2022-08-14T23:05:39.580Z,94.60
2022-08-14T23:09:00.090Z,94.70
2022-08-14T23:10:32.789Z,95.50
2022-08-14T23:12:45.959Z,95.90
2022-08-14T23:14:51.774Z,96.50
2022-08-14T23:16:57.538Z,97.40
2022-08-14T23:19:02.254Z,97.40
2022-08-14T23:21:11.011Z,97.50
2022-08-14T23:23:22.529Z,97.20
2022-08-14T23:25:57.101Z,97.30
2022-08-14T23:28:03.257Z,98.10
2022-08-14T23:30:33.957Z,98.70
2022-08-14T23:32:39.911Z,98.80
2022-08-14T23:34:48.135Z,98.60
2022-08-14T23:36:59.089Z,98.60
2022-08-14T23:39:12.299Z,98.40
2022-08-14T23:41:17.464Z,98.50
2022-08-14T23:43:22.214Z,98.10
2022-08-14T23:45:36.202Z,97.90
2022-08-14T23:47:52.151Z,97.20
2022-08-14T23:50:03.561Z,96.90
2022-08-14T23:52:57.402Z,97.50
2022-08-14T23:54:48.740Z,97.60
2022-08-14T23:57:02.585Z,97.20
2022-08-14T23:59:07.665Z,97.50
